Time;durP1;ratioP1;P1;durP2;ratioP2;P2;SDS_P1;SDS_P2;PMS_P1;PMS_P2;Temp;Humidity;BMP_temperature;BMP_pressure;BME280_temperature;BME280_humidity;BME280_pressure;Samples;Min_cycle;Max_cycle;Signal;HPM_P1;HPM_P2
2022/07/11 00:01:05;;;;;;;2.03;1.15;;;;;;;21.48;48.22;100976.00;4983456;28;20046;-43
2022/07/11 00:03:31;;;;;;;2.08;1.10;;;;;;;21.44;47.90;100977.84;4984776;28;20042;-43
2022/07/11 00:05:58;;;;;;;2.67;1.33;;;;;;;21.42;48.40;100977.06;4983772;28;20108;-44
2022/07/11 00:08:25;;;;;;;2.67;1.48;;;;;;;21.39;48.08;100969.25;4983031;28;20050;-43
2022/07/11 00:10:51;;;;;;;3.22;1.90;;;;;;;21.37;48.44;100966.66;4984433;28;20109;-46
2022/07/11 00:13:18;;;;;;;3.17;1.75;;;;;;;21.34;48.56;100965.91;4983932;28;20631;-43
2022/07/11 00:15:45;;;;;;;2.85;1.58;;;;;;;21.30;48.60;100971.28;4985073;28;20050;-45
2022/07/11 00:18:11;;;;;;;4.70;0.90;;;;;;;21.29;48.46;100964.31;4979949;28;20042;-42
2022/07/11 00:20:38;;;;;;;2.28;1.17;;;;;;;21.21;48.87;100958.41;4985743;28;20061;-44
2022/07/11 00:23:05;;;;;;;3.60;1.20;;;;;;;21.17;48.88;100964.69;4981502;28;20050;-42
2022/07/11 00:25:31;;;;;;;3.85;1.13;;;;;;;21.11;49.33;100964.91;4977856;28;20101;-43
2022/07/11 00:27:58;;;;;;;3.47;1.00;;;;;;;21.06;48.96;100958.00;4984537;28;20050;-42
2022/07/11 00:30:24;;;;;;;2.45;1.05;;;;;;;21.03;49.12;100963.38;4984346;28;20077;-42
2022/07/11 00:32:51;;;;;;;2.72;1.13;;;;;;;21.01;49.53;100959.91;4980652;28;20050;-45
2022/07/11 00:35:18;;;;;;;6.00;1.40;;;;;;;20.99;49.48;100960.88;4987446;28;20586;-44
2022/07/11 00:37:44;;;;;;;3.45;0.95;;;;;;;20.96;49.32;100951.31;4989882;28;20046;-42
2022/07/11 00:40:11;;;;;;;2.50;1.77;;;;;;;20.94;49.98;100953.16;4986730;28;20631;-43
2022/07/11 00:42:38;;;;;;;2.35;0.93;;;;;;;20.92;49.56;100944.41;4985421;28;20046;-43
2022/07/11 00:45:05;;;;;;;2.70;2.00;;;;;;;20.90;49.90;100947.09;4989112;28;20919;-44
2022/07/11 00:47:31;;;;;;;3.75;1.35;;;;;;;20.89;50.05;100940.13;4983753;28;20047;-43
2022/07/11 00:49:58;;;;;;;3.30;1.10;;;;;;;20.88;50.23;100938.41;4991002;28;20120;-43
2022/07/11 00:52:25;;;;;;;2.95;1.25;;;;;;;20.89;49.97;100939.25;4989260;28;20182;-44
2022/07/11 00:54:53;;;;;;;2.47;1.00;;;;;;;20.88;50.19;100937.50;4989191;28;20057;-44
2022/07/11 00:57:20;;;;;;;3.03;0.90;;;;;;;20.89;50.21;100939.25;4987174;28;20051;-43
2022/07/11 00:59:47;;;;;;;1.83;1.05;;;;;;;20.89;50.72;100933.97;4987661;28;20057;-43
2022/07/11 01:02:14;;;;;;;1.48;0.88;;;;;;;20.89;50.33;100939.25;4986706;28;20057;-44
2022/07/11 01:04:41;;;;;;;3.08;1.33;;;;;;;20.90;50.37;100940.97;4988390;28;20046;-46
2022/07/11 01:07:08;;;;;;;1.80;0.70;;;;;;;20.89;50.44;100929.59;4987040;28;20070;-44
2022/07/11 01:09:34;;;;;;;1.63;1.08;;;;;;;20.88;50.80;100937.50;4992714;28;20675;-46
2022/07/11 01:12:01;;;;;;;2.55;0.90;;;;;;;20.84;50.41;100930.59;4987652;28;20046;-44
2022/07/11 01:14:28;;;;;;;3.10;1.42;;;;;;;20.80;50.31;100935.97;4990438;28;20050;-43
2022/07/11 01:16:55;;;;;;;2.13;1.23;;;;;;;20.78;50.74;100934.28;4981755;28;20054;-45
2022/07/11 01:19:21;;;;;;;3.85;1.25;;;;;;;20.76;50.63;100934.34;4987100;28;20100;-44
2022/07/11 01:21:50;;;;;;;2.90;1.23;;;;;;;20.72;50.97;100927.44;4987288;28;20058;-43
2022/07/11 01:24:18;;;;;;;3.05;1.30;;;;;;;20.68;51.15;100936.34;4988411;28;20046;-43
2022/07/11 01:26:51;;;;;;;2.65;0.70;;;;;;;20.65;51.47;100933.81;4983440;28;20048;-42
2022/07/11 01:29:17;;;;;;;2.05;1.00;;;;;;;20.58;51.18;100934.91;4986853;28;20356;-43
2022/07/11 01:31:44;;;;;;;2.13;1.10;;;;;;;20.52;51.19;100936.81;4990972;28;20117;-44
2022/07/11 01:34:12;;;;;;;2.13;1.10;;;;;;;20.46;51.55;100938.78;4986665;28;20471;-44
2022/07/11 01:36:39;;;;;;;2.58;1.45;;;;;;;20.31;51.64;100933.06;4984563;28;20064;-43
2022/07/11 01:39:05;;;;;;;2.78;1.58;;;;;;;20.21;51.99;100945.63;4983558;28;20042;-43
2022/07/11 01:41:32;;;;;;;3.78;1.20;;;;;;;20.12;51.71;100937.97;4992386;28;20046;-43
2022/07/11 01:43:59;;;;;;;2.00;0.88;;;;;;;20.07;52.29;100934.63;4985565;28;20054;-45
2022/07/11 01:46:26;;;;;;;3.42;2.08;;;;;;;20.01;52.21;100927.78;4984486;28;20670;-43
2022/07/11 01:48:53;;;;;;;3.47;1.05;;;;;;;19.94;52.60;100934.94;4981557;28;20042;-43
2022/07/11 01:51:19;;;;;;;2.78;1.30;;;;;;;19.84;53.00;100933.47;4984777;28;20049;-42
2022/07/11 01:53:46;;;;;;;6.82;1.20;;;;;;;19.71;52.84;100939.06;4987646;28;20097;-44
2022/07/11 01:56:13;;;;;;;3.88;1.38;;;;;;;19.64;53.16;100932.25;4984971;28;20046;-43
2022/07/11 01:58:46;;;;;;;3.58;1.77;;;;;;;19.58;53.00;100922.75;4984874;28;20054;-44
2022/07/11 02:01:13;;;;;;;3.55;1.90;;;;;;;19.54;53.15;100918.50;4986424;28;20056;-46
2022/07/11 02:03:40;;;;;;;5.80;1.63;;;;;;;19.51;53.25;100922.06;4987690;28;20419;-49
2022/07/11 02:06:07;;;;;;;3.55;1.77;;;;;;;19.47;53.93;100920.44;4985263;28;20379;-45
2022/07/11 02:08:34;;;;;;;3.75;1.83;;;;;;;19.42;53.44;100913.56;4985758;28;20049;-43
2022/07/11 02:11:01;;;;;;;3.45;2.17;;;;;;;19.39;53.66;100917.13;4987093;28;20047;-45
2022/07/11 02:13:27;;;;;;;3.58;1.73;;;;;;;19.35;53.80;100920.75;4987158;28;20542;-43
2022/07/11 02:15:54;;;;;;;6.82;1.80;;;;;;;19.30;54.14;100912.09;4988424;28;20042;-43
2022/07/11 02:18:21;;;;;;;2.95;1.58;;;;;;;19.23;53.87;100912.28;4988194;28;20195;-44
2022/07/11 02:20:49;;;;;;;5.85;1.83;;;;;;;19.19;54.35;100904.50;4986677;28;20046;-43
2022/07/11 02:23:16;;;;;;;4.55;1.63;;;;;;;19.14;53.91;100902.00;4986364;28;20388;-42
2022/07/11 02:25:44;;;;;;;3.15;1.55;;;;;;;19.07;54.74;100900.41;4985109;28;20053;-43
2022/07/11 02:28:12;;;;;;;4.50;2.50;;;;;;;18.99;54.73;100917.19;4983662;28;20588;-43
2022/07/11 02:30:41;;;;;;;4.45;1.80;;;;;;;18.95;54.24;100912.91;4982622;28;20050;-47
2022/07/11 02:33:11;;;;;;;2.85;1.75;;;;;;;18.93;54.71;100904.22;4985472;28;20050;-46
2022/07/11 02:35:37;;;;;;;3.90;1.75;;;;;;;18.85;55.33;100906.16;4982760;28;20121;-48
2022/07/11 02:38:04;;;;;;;4.53;1.90;;;;;;;18.79;55.20;100903.69;4981319;28;20050;-46
2022/07/11 02:40:31;;;;;;;4.80;1.90;;;;;;;18.71;55.51;100904.72;4986070;28;20046;-44
2022/07/11 02:42:57;;;;;;;3.20;1.83;;;;;;;18.67;55.06;100902.22;4990313;28;20538;-42
2022/07/11 02:45:24;;;;;;;4.35;1.65;;;;;;;18.65;54.94;100899.63;4985114;28;20053;-43
2022/07/11 02:47:51;;;;;;;4.05;1.85;;;;;;;18.61;55.74;100884.84;4984795;28;20140;-44
2022/07/11 02:50:17;;;;;;;3.72;1.92;;;;;;;18.61;55.60;100882.25;4984853;28;20128;-44
2022/07/11 02:52:44;;;;;;;3.05;1.52;;;;;;;18.60;55.65;100880.50;4984899;28;20062;-44
2022/07/11 02:55:12;;;;;;;4.00;1.70;;;;;;;18.60;55.84;100870.00;4983491;28;20047;-46
2022/07/11 02:57:39;;;;;;;4.18;2.95;;;;;;;18.59;55.72;100858.66;4987492;28;20848;-44
2022/07/11 03:00:11;;;;;;;3.53;1.83;;;;;;;18.60;55.84;100864.75;4981515;28;20105;-43
2022/07/11 03:02:37;;;;;;;4.85;1.67;;;;;;;18.59;56.54;100861.28;4986913;28;20415;-44
2022/07/11 03:05:04;;;;;;;4.22;1.98;;;;;;;18.58;56.16;100866.56;4983406;28;20977;-42
2022/07/11 03:07:31;;;;;;;4.30;1.63;;;;;;;18.56;56.33;100863.09;4986406;28;20056;-42
2022/07/11 03:09:58;;;;;;;6.20;2.40;;;;;;;18.54;56.45;100862.28;4988145;28;20050;-43
2022/07/11 03:12:24;;;;;;;3.78;1.98;;;;;;;18.54;56.17;100859.66;4988836;28;20069;-42
2022/07/11 03:14:51;;;;;;;6.75;3.20;;;;;;;18.53;56.54;100863.16;4986996;28;20303;-42
2022/07/11 03:17:18;;;;;;;4.18;2.00;;;;;;;18.48;56.30;100868.53;4983882;28;20169;-44
2022/07/11 03:19:46;;;;;;;5.32;1.88;;;;;;;18.46;56.94;100865.94;4989134;28;20050;-43
2022/07/11 03:22:14;;;;;;;3.85;1.90;;;;;;;18.44;57.00;100867.72;4988065;28;20062;-42
2022/07/11 03:24:42;;;;;;;5.60;1.98;;;;;;;18.42;57.00;100877.41;4987500;28;20050;-43
2022/07/11 03:27:09;;;;;;;3.55;1.80;;;;;;;18.42;57.59;100879.16;4982105;28;20084;-42
2022/07/11 03:29:39;;;;;;;3.80;2.08;;;;;;;18.40;57.19;100883.59;4985829;28;20050;-43
2022/07/11 03:32:06;;;;;;;5.53;2.35;;;;;;;18.39;56.92;100885.31;4985565;28;20046;-42
2022/07/11 03:34:33;;;;;;;4.85;2.03;;;;;;;18.38;57.49;100886.25;4984568;28;20051;-42
2022/07/11 03:37:00;;;;;;;4.18;2.70;;;;;;;18.37;57.94;100889.72;4978556;28;20054;-44
2022/07/11 03:39:27;;;;;;;6.47;2.20;;;;;;;18.35;57.88;100892.41;4978971;28;20051;-42
2022/07/11 03:41:54;;;;;;;4.15;2.40;;;;;;;18.31;57.59;100885.47;4984694;28;20046;-42
2022/07/11 03:44:21;;;;;;;3.78;1.70;;;;;;;18.31;58.10;100884.63;4984429;28;20050;-43
2022/07/11 03:46:48;;;;;;;5.10;1.95;;;;;;;18.29;57.96;100881.16;4987409;28;20447;-42
2022/07/11 03:49:14;;;;;;;5.93;2.50;;;;;;;18.29;57.68;100883.78;4978601;28;20081;-44
2022/07/11 03:51:42;;;;;;;5.30;1.98;;;;;;;18.26;57.69;100881.22;4984631;28;20116;-43
2022/07/11 03:54:08;;;;;;;6.70;2.28;;;;;;;18.22;58.47;100886.56;4985246;28;20047;-43
2022/07/11 03:56:35;;;;;;;4.43;1.88;;;;;;;18.20;58.68;100887.47;4983126;28;20061;-43
2022/07/11 03:59:01;;;;;;;6.10;2.10;;;;;;;18.18;58.28;100884.03;4986431;28;20049;-42
2022/07/11 04:01:28;;;;;;;8.45;2.15;;;;;;;18.18;57.64;100878.78;4983051;28;20050;-42
2022/07/11 04:03:55;;;;;;;4.07;2.10;;;;;;;18.16;58.50;100878.81;4981427;28;20426;-43
2022/07/11 04:06:22;;;;;;;4.70;2.03;;;;;;;18.16;58.03;100881.44;4983816;28;20046;-43
2022/07/11 04:08:48;;;;;;;4.68;1.52;;;;;;;18.16;58.23;100885.81;4983323;28;20046;-42
2022/07/11 04:11:15;;;;;;;3.85;1.98;;;;;;;18.13;58.33;100881.50;4991489;28;20114;-42
2022/07/11 04:13:42;;;;;;;4.10;2.15;;;;;;;18.12;58.85;100885.03;4986905;28;20076;-43
2022/07/11 04:16:09;;;;;;;4.40;2.20;;;;;;;18.11;58.40;100883.31;4986851;28;20722;-42
2022/07/11 04:18:37;;;;;;;6.03;2.10;;;;;;;18.09;59.03;100885.09;4987086;28;20050;-44
2022/07/11 04:21:04;;;;;;;3.83;1.70;;;;;;;18.08;58.56;100883.34;4988317;28;20117;-43
2022/07/11 04:23:35;;;;;;;4.78;1.90;;;;;;;18.08;59.04;100884.22;4985629;28;20176;-43
2022/07/11 04:26:02;;;;;;;4.28;1.95;;;;;;;18.08;58.74;100888.56;4986879;28;20114;-42
2022/07/11 04:28:28;;;;;;;4.75;2.38;;;;;;;18.06;58.72;100885.09;4987902;28;20057;-43
2022/07/11 04:30:55;;;;;;;4.78;2.45;;;;;;;18.08;58.97;100893.81;4986155;28;20046;-41
2022/07/11 04:33:22;;;;;;;5.00;2.58;;;;;;;18.09;59.39;100879.84;4987396;28;20061;-42
2022/07/11 04:35:48;;;;;;;6.00;1.95;;;;;;;18.11;59.50;100888.56;4985526;28;20073;-43
2022/07/11 04:38:16;;;;;;;5.18;2.50;;;;;;;18.14;59.22;100893.75;4987527;28;20139;-42
2022/07/11 04:40:43;;;;;;;4.45;2.10;;;;;;;18.17;59.40;100898.88;4988890;28;20043;-46
2022/07/11 04:43:10;;;;;;;6.50;2.63;;;;;;;18.21;58.84;100900.56;4989322;28;20057;-42
2022/07/11 04:45:36;;;;;;;5.15;2.05;;;;;;;18.24;59.64;100897.88;4987029;28;20058;-42
2022/07/11 04:48:03;;;;;;;3.72;2.15;;;;;;;18.29;58.87;100897.78;4987813;28;20050;-42
2022/07/11 04:50:30;;;;;;;6.05;2.30;;;;;;;18.31;59.35;100901.22;4989725;28;20045;-43
2022/07/11 04:52:57;;;;;;;4.97;1.80;;;;;;;18.35;59.50;100908.16;4985836;28;20080;-42
2022/07/11 04:55:24;;;;;;;3.33;1.73;;;;;;;18.37;58.75;100902.84;4988030;28;20042;-43
2022/07/11 04:57:51;;;;;;;6.18;1.85;;;;;;;18.39;58.91;100906.31;4987915;28;20384;-42
2022/07/11 05:00:18;;;;;;;6.25;2.15;;;;;;;18.37;59.84;100900.22;4983094;28;20263;-42
2022/07/11 05:02:45;;;;;;;4.05;1.85;;;;;;;18.39;59.57;100914.19;4985730;28;20054;-43
2022/07/11 05:05:12;;;;;;;4.93;1.80;;;;;;;18.44;59.31;100907.06;4983917;28;20051;-43
2022/07/11 05:07:39;;;;;;;3.58;1.98;;;;;;;18.52;59.71;100914.78;4991224;28;20109;-43
2022/07/11 05:10:06;;;;;;;4.30;2.17;;;;;;;18.62;60.22;100912.81;4987851;28;21118;-42
2022/07/11 05:12:33;;;;;;;6.40;1.75;;;;;;;18.73;59.80;100913.44;4986572;28;20058;-42
2022/07/11 05:15:00;;;;;;;4.50;2.10;;;;;;;18.85;59.91;100916.66;4989247;28;20453;-43
2022/07/11 05:17:26;;;;;;;8.20;2.20;;;;;;;18.97;59.81;100911.13;4986513;28;20054;-43
2022/07/11 05:19:53;;;;;;;5.22;1.77;;;;;;;19.11;60.00;100907.31;5003800;28;20065;-42
2022/07/11 05:22:20;;;;;;;5.68;2.53;;;;;;;19.26;59.78;100912.19;4986323;28;20050;-42
2022/07/11 05:24:47;;;;;;;5.93;2.00;;;;;;;19.40;59.73;100913.59;4984007;28;20129;-42
2022/07/11 05:27:13;;;;;;;4.68;2.47;;;;;;;19.53;59.56;100909.75;4985575;28;20112;-43
2022/07/11 05:29:40;;;;;;;5.28;2.42;;;;;;;19.66;59.84;100914.69;4987096;28;20047;-42
2022/07/11 05:32:07;;;;;;;5.32;2.47;;;;;;;19.73;59.87;100902.25;4986540;28;20592;-44
2022/07/11 05:34:34;;;;;;;4.72;2.50;;;;;;;19.83;60.05;100905.47;4989596;28;20081;-44
2022/07/11 05:37:00;;;;;;;8.88;2.53;;;;;;;19.97;59.91;100908.59;4985608;28;20042;-44
2022/07/11 05:39:27;;;;;;;6.43;1.73;;;;;;;20.11;59.90;100909.97;4988778;28;20100;-46
2022/07/11 05:41:54;;;;;;;4.82;2.05;;;;;;;20.25;59.49;100913.06;4986352;28;20099;-48
2022/07/11 05:44:20;;;;;;;5.07;2.55;;;;;;;20.41;59.34;100907.34;4985441;28;20050;-43
2022/07/11 05:46:47;;;;;;;4.97;1.92;;;;;;;20.58;59.00;100911.22;4988805;28;20046;-42
2022/07/11 05:49:14;;;;;;;3.88;1.95;;;;;;;20.72;59.30;100909.03;4982248;28;20096;-43
2022/07/11 05:51:41;;;;;;;5.25;2.33;;;;;;;20.91;59.23;100913.75;4979897;28;20061;-45
2022/07/11 05:54:08;;;;;;;4.30;2.10;;;;;;;21.09;59.39;100908.75;4980791;28;20080;-42
2022/07/11 05:56:34;;;;;;;5.47;2.22;;;;;;;21.26;58.61;100911.72;4981183;28;20518;-43
2022/07/11 05:59:01;;;;;;;4.57;1.75;;;;;;;21.41;57.78;100920.00;4977536;28;20065;-43
2022/07/11 06:01:28;;;;;;;5.18;2.22;;;;;;;21.57;57.81;100921.19;4981461;28;20105;-47
2022/07/11 06:04:02;;;;;;;4.65;1.98;;;;;;;21.78;57.41;100916.09;4977460;28;20049;-45
2022/07/11 06:06:29;;;;;;;3.83;2.13;;;;;;;22.00;57.89;100917.94;4983377;28;20052;-45
2022/07/11 06:08:56;;;;;;;3.08;1.90;;;;;;;22.21;57.67;100915.41;4975366;28;20065;-46
2022/07/11 06:11:23;;;;;;;4.80;2.63;;;;;;;22.39;56.60;100916.47;4979960;28;20790;-47
2022/07/11 06:13:50;;;;;;;6.80;2.13;;;;;;;22.56;56.84;100918.50;4982567;28;20046;-43
2022/07/11 06:16:22;;;;;;;3.67;1.77;;;;;;;22.74;55.93;100929.25;4981234;28;20080;-44
2022/07/11 06:18:50;;;;;;;2.95;1.90;;;;;;;22.93;56.54;100920.59;4982410;28;20050;-43
2022/07/11 06:21:19;;;;;;;4.28;1.80;;;;;;;23.12;55.49;100923.34;4981710;28;20133;-43
2022/07/11 06:23:46;;;;;;;3.38;1.65;;;;;;;23.31;56.02;100923.44;4976834;28;20054;-46
2022/07/11 06:26:14;;;;;;;5.07;2.00;;;;;;;23.50;54.36;100927.94;4991549;28;20086;-45
2022/07/11 06:28:41;;;;;;;4.97;3.17;;;;;;;23.67;54.44;100929.00;4981587;28;20609;-44
2022/07/11 06:31:08;;;;;;;5.03;2.03;;;;;;;23.84;54.11;100926.44;4980611;28;20046;-44
2022/07/11 06:33:35;;;;;;;5.82;1.90;;;;;;;24.04;53.53;100926.50;4979056;28;20058;-43
2022/07/11 06:36:03;;;;;;;3.47;1.60;;;;;;;24.26;53.93;100931.69;4979355;28;20058;-46
2022/07/11 06:38:31;;;;;;;5.13;2.13;;;;;;;24.49;53.43;100922.66;4982142;28;20050;-45
2022/07/11 06:40:58;;;;;;;4.50;2.20;;;;;;;24.74;52.90;100936.50;4979513;28;20101;-43
2022/07/11 06:43:25;;;;;;;4.63;2.08;;;;;;;24.96;52.83;100930.19;4978647;28;20058;-44
2022/07/11 06:45:52;;;;;;;2.67;1.50;;;;;;;25.16;51.83;100927.41;4980977;28;20461;-43
2022/07/11 06:48:20;;;;;;;6.00;1.60;;;;;;;25.37;51.44;100924.56;4978344;28;20058;-49
2022/07/11 06:50:48;;;;;;;6.55;2.35;;;;;;;25.60;51.58;100925.22;4976357;28;20631;-51
2022/07/11 06:53:15;;;;;;;3.80;1.90;;;;;;;25.84;50.76;100922.22;4979000;28;20062;-46
2022/07/11 06:55:41;;;;;;;3.95;1.55;;;;;;;26.07;51.11;100922.75;4980565;28;20419;-45
2022/07/11 06:58:08;;;;;;;3.63;1.88;;;;;;;26.32;50.46;100921.44;4983629;28;20046;-44
2022/07/11 07:00:51;;;;;;;3.40;1.42;;;;;;;26.64;50.20;100932.06;4979374;28;20512;-43
2022/07/11 07:03:18;;;;;;;3.53;1.95;;;;;;;26.97;49.56;100932.03;4977879;28;20058;-43
2022/07/11 07:05:47;;;;;;;4.50;1.90;;;;;;;27.33;48.97;100925.50;4977884;28;20058;-49
2022/07/11 07:08:17;;;;;;;2.85;1.77;;;;;;;27.67;48.18;100928.81;4974144;28;20051;-45
2022/07/11 07:10:43;;;;;;;2.95;1.42;;;;;;;27.93;48.30;100926.31;4979163;28;20042;-46
2022/07/11 07:13:11;;;;;;;2.67;1.83;;;;;;;28.26;47.53;100926.09;4978318;28;20116;-44
2022/07/11 07:15:38;;;;;;;4.45;1.77;;;;;;;28.57;47.31;100934.81;4979177;28;20050;-48
2022/07/11 07:18:04;;;;;;;5.47;2.72;;;;;;;28.84;46.04;100939.28;4982712;28;20134;-46
2022/07/11 07:20:31;;;;;;;5.38;1.98;;;;;;;29.04;46.22;100934.47;4985066;28;20081;-44
2022/07/11 07:22:59;;;;;;;3.40;2.15;;;;;;;29.19;45.43;100935.22;4983601;28;20055;-43
2022/07/11 07:25:25;;;;;;;4.00;2.45;;;;;;;29.34;45.24;100939.50;4976458;28;20575;-44
2022/07/11 07:27:52;;;;;;;3.97;2.05;;;;;;;29.53;45.32;100942.72;4985422;28;20490;-47
2022/07/11 07:30:19;;;;;;;4.28;1.90;;;;;;;29.74;44.70;100943.06;4980873;28;20063;-44
2022/07/11 07:32:45;;;;;;;2.13;1.50;;;;;;;29.96;45.12;100950.41;4986701;28;20097;-44
2022/07/11 07:35:12;;;;;;;4.88;1.70;;;;;;;30.20;45.14;100941.66;4985542;28;20050;-47
2022/07/11 07:37:39;;;;;;;4.05;1.73;;;;;;;30.45;43.85;100945.19;4986336;28;20054;-49
2022/07/11 07:40:06;;;;;;;3.67;1.80;;;;;;;30.64;43.68;100950.06;4982225;28;20049;-44
2022/07/11 07:42:33;;;;;;;2.25;1.80;;;;;;;30.86;43.75;100942.28;4978896;28;20057;-48
2022/07/11 07:45:01;;;;;;;4.38;1.80;;;;;;;30.98;42.55;100949.38;4985352;28;20074;-50
2022/07/11 07:47:29;;;;;;;3.05;1.55;;;;;;;31.08;42.56;100949.53;4984082;28;20042;-46
2022/07/11 07:49:56;;;;;;;4.90;1.77;;;;;;;31.27;42.86;100951.63;4985724;28;20055;-46
2022/07/11 07:52:23;;;;;;;4.00;1.90;;;;;;;31.49;42.59;100949.16;4985915;28;20064;-50
2022/07/11 07:54:49;;;;;;;2.85;1.83;;;;;;;31.71;41.87;100947.47;4985769;28;20097;-45
2022/07/11 07:57:16;;;;;;;2.97;1.70;;;;;;;31.83;41.57;100945.63;4989000;28;20053;-45
2022/07/11 07:59:43;;;;;;;2.25;1.85;;;;;;;31.98;41.15;100949.81;4987427;28;20089;-46
2022/07/11 08:02:09;;;;;;;4.15;1.80;;;;;;;32.13;41.04;100947.75;4988100;28;20034;-45
2022/07/11 08:04:37;;;;;;;3.30;1.80;;;;;;;32.22;39.63;100948.84;4988770;28;20058;-45
2022/07/11 08:07:03;;;;;;;2.92;1.70;;;;;;;32.26;39.71;100947.59;4989246;28;20042;-45
2022/07/11 08:09:30;;;;;;;2.88;1.60;;;;;;;32.29;39.92;100943.81;4991508;28;20108;-44
2022/07/11 08:11:57;;;;;;;2.42;1.48;;;;;;;32.39;39.41;100941.22;4988635;28;20050;-44
2022/07/11 08:14:23;;;;;;;4.30;1.40;;;;;;;32.67;40.06;100944.34;4992011;28;20104;-44
2022/07/11 08:16:50;;;;;;;4.18;1.58;;;;;;;32.96;38.37;100954.47;4991269;28;20097;-43
2022/07/11 08:19:18;;;;;;;3.72;1.70;;;;;;;33.11;38.42;100946.13;4990473;28;20101;-44
2022/07/11 08:21:45;;;;;;;2.40;1.27;;;;;;;33.34;38.66;100936.13;4989377;28;20117;-43
2022/07/11 08:24:12;;;;;;;5.82;1.40;;;;;;;33.51;37.28;100945.38;4990948;28;20073;-44
2022/07/11 08:26:38;;;;;;;5.68;2.30;;;;;;;33.72;36.46;100939.16;4991810;28;20054;-45
2022/07/11 08:29:05;;;;;;;2.38;1.60;;;;;;;33.95;36.82;100952.38;4991809;28;20051;-45
2022/07/11 08:31:32;;;;;;;2.33;1.20;;;;;;;34.10;35.74;100945.69;4992335;28;20046;-45
2022/07/11 08:34:02;;;;;;;3.00;1.27;;;;;;;34.24;35.15;100948.94;4991521;28;20563;-44
2022/07/11 08:36:30;;;;;;;2.20;1.02;;;;;;;34.43;34.30;100941.91;4991189;28;20161;-44
2022/07/11 08:38:58;;;;;;;1.85;1.10;;;;;;;34.53;34.41;100936.53;4992345;28;20414;-46
2022/07/11 08:41:25;;;;;;;2.47;1.40;;;;;;;34.72;35.16;100939.25;4988372;28;20042;-44
2022/07/11 08:43:52;;;;;;;1.70;1.20;;;;;;;35.02;34.37;100943.78;4991292;28;20054;-45
2022/07/11 08:46:19;;;;;;;3.20;1.50;;;;;;;35.27;33.45;100947.75;4987995;28;20132;-44
2022/07/11 08:48:47;;;;;;;2.53;1.52;;;;;;;35.37;32.49;100942.34;4984778;28;20054;-47
2022/07/11 08:51:14;;;;;;;2.22;1.30;;;;;;;35.44;33.17;100946.16;4991132;28;20108;-43
2022/07/11 08:53:43;;;;;;;2.60;1.45;;;;;;;35.56;32.98;100948.66;4989133;28;20557;-44
2022/07/11 08:56:16;;;;;;;1.73;1.05;;;;;;;35.71;33.15;100946.34;4986820;28;20081;-46
2022/07/11 08:58:45;;;;;;;4.40;0.98;;;;;;;35.94;31.91;100945.97;4991652;28;20051;-47
2022/07/11 09:01:27;;;;;;;3.92;1.25;;;;;;;36.15;31.65;100943.88;4990720;28;20078;-44
2022/07/11 09:03:55;;;;;;;2.17;0.90;;;;;;;36.33;31.33;100934.97;4988203;28;20052;-48
2022/07/11 09:06:21;;;;;;;1.88;0.90;;;;;;;36.52;31.62;100938.53;4988908;28;20152;-44
2022/07/11 09:08:48;;;;;;;2.80;0.90;;;;;;;36.63;30.40;100938.28;4988235;28;20097;-45
2022/07/11 09:11:15;;;;;;;2.53;1.08;;;;;;;36.66;30.55;100938.00;4989792;28;20046;-46
2022/07/11 09:13:42;;;;;;;1.80;1.15;;;;;;;36.66;29.31;100934.44;4988010;28;20121;-43
2022/07/11 09:16:09;;;;;;;4.80;1.60;;;;;;;36.62;29.22;100931.22;4989166;28;20053;-47
2022/07/11 09:18:38;;;;;;;2.55;0.82;;;;;;;36.64;29.54;100929.19;4987759;28;20070;-46
2022/07/11 09:26:34;;;;;;;3.40;1.83;;;;;;;36.91;29.18;100932.81;5072506;28;20171;-46
2022/07/11 09:29:04;;;;;;;2.70;1.58;;;;;;;37.00;29.11;100935.56;5071623;28;20077;-45
2022/07/11 09:31:32;;;;;;;5.03;1.40;;;;;;;37.01;28.46;100916.53;5064113;28;20477;-46
2022/07/11 09:34:01;;;;;;;3.78;1.48;;;;;;;37.03;28.42;100927.16;5071725;28;20044;-46
2022/07/11 09:39:15;;;;;;;2.83;2.63;;;;;;;37.09;28.57;100921.16;5035923;28;20401;-43
2022/07/11 09:41:43;;;;;;;5.57;3.15;;;;;;;37.22;28.55;100920.75;5017570;28;20050;-44
2022/07/11 09:44:16;;;;;;;3.70;3.50;;;;;;;37.14;27.34;100926.91;5010965;28;20072;-45
2022/07/11 09:46:46;;;;;;;4.50;2.72;;;;;;;37.13;28.33;100929.75;5006330;28;20477;-44
2022/07/11 09:49:14;;;;;;;5.20;3.53;;;;;;;37.21;27.32;100915.50;5023646;28;20045;-46
2022/07/11 09:51:42;;;;;;;3.53;3.22;;;;;;;37.12;27.39;100914.56;5023563;28;20050;-44
2022/07/11 09:54:10;;;;;;;2.80;2.55;;;;;;;37.16;27.12;100914.16;5022776;28;20057;-46
2022/07/11 09:56:42;;;;;;;3.20;2.28;;;;;;;37.01;27.23;100910.28;5051880;28;20049;-46
2022/07/11 09:59:24;;;;;;;3.95;3.10;;;;;;;36.92;28.13;100906.69;5003680;28;20038;-44
2022/07/11 10:01:50;;;;;;;3.33;3.03;;;;;;;37.08;28.47;100905.97;5001811;28;20054;-45
2022/07/11 10:04:18;;;;;;;4.40;2.53;;;;;;;37.27;27.32;100904.91;5001741;28;20081;-44
2022/07/11 10:06:45;;;;;;;5.85;2.90;;;;;;;37.32;26.85;100901.75;5003810;28;20100;-44
2022/07/11 10:09:11;;;;;;;4.57;3.60;;;;;;;37.40;27.05;100893.69;5002943;28;20046;-45
2022/07/11 10:11:38;;;;;;;2.70;2.33;;;;;;;37.49;26.63;100896.41;5001067;28;20081;-44
2022/07/11 10:14:07;;;;;;;4.07;3.67;;;;;;;37.54;26.53;100894.06;5002625;28;20046;-44
2022/07/11 10:19:25;;;;;;;5.43;3.22;;;;;;;37.79;26.88;100891.50;5007879;27;21202;-46
2022/07/11 10:22:06;;;;;;;3.88;1.30;;;;;;;37.84;26.84;100889.16;4988776;28;20130;-45
2022/07/11 10:29:58;;;;;;;3.20;2.90;;;;;;;37.84;25.34;100891.84;5085481;27;20406;-46
2022/07/11 10:32:24;;;;;;;3.45;2.83;;;;;;;37.66;24.49;100887.38;5071420;28;20048;-43
2022/07/11 10:37:47;;;;;;;3.53;1.73;;;;;;;37.67;25.00;100894.50;5087743;27;21148;-46
2022/07/11 10:40:15;;;;;;;3.60;1.80;;;;;;;37.76;25.74;100889.97;5071067;28;20090;-44
2022/07/11 10:42:42;;;;;;;1.85;1.65;;;;;;;37.87;25.58;100888.81;5070251;28;20080;-45
2022/07/11 10:45:11;;;;;;;2.25;1.65;;;;;;;38.01;25.61;100891.88;5077946;28;20106;-43
2022/07/11 10:47:42;;;;;;;2.63;1.90;;;;;;;38.08;25.60;100890.22;5075703;28;20052;-45
2022/07/11 10:50:38;;;;;;;3.25;1.75;;;;;;;38.09;25.20;100900.00;5072756;28;20739;-45
2022/07/11 10:53:09;;;;;;;2.83;1.33;;;;;;;37.88;24.72;100890.50;5073045;28;20050;-46
2022/07/11 10:55:40;;;;;;;3.35;1.90;;;;;;;37.55;24.68;100893.06;5077704;28;20052;-44
2022/07/11 11:01:08;;;;;;;2.10;1.75;;;;;;;37.62;24.32;100886.00;5072576;27;20401;-45
2022/07/11 11:03:35;;;;;;;1.63;1.10;;;;;;;37.56;25.39;100886.66;5064713;28;20067;-44
2022/07/11 11:06:02;;;;;;;4.40;2.00;;;;;;;37.55;25.00;100884.97;5061431;28;20094;-43
2022/07/11 11:13:45;;;;;;;3.15;1.25;;;;;;;37.63;25.44;100876.91;5063329;28;20391;-45
2022/07/11 11:16:22;;;;;;;3.63;1.58;;;;;;;37.42;24.82;100880.00;5020971;28;20053;-46
2022/07/11 11:18:49;;;;;;;1.58;1.33;;;;;;;37.25;25.54;100884.47;5011848;28;20052;-45
2022/07/11 11:21:19;;;;;;;3.67;1.33;;;;;;;37.20;25.49;100881.41;5029495;28;20045;-47
2022/07/11 11:24:02;;;;;;;1.92;1.27;;;;;;;37.21;25.56;100877.72;5022439;28;20045;-48
2022/07/11 11:26:48;;;;;;;1.77;1.58;;;;;;;37.34;26.58;100879.97;5025884;28;20045;-44
2022/07/11 11:29:20;;;;;;;1.70;1.23;;;;;;;37.45;25.16;100878.84;5031810;28;20046;-45
2022/07/11 11:31:50;;;;;;;2.75;2.55;;;;;;;37.45;25.64;100868.03;5052550;28;20549;-44
2022/07/11 11:34:17;;;;;;;1.60;1.20;;;;;;;37.36;26.04;100870.69;5053634;28;20048;-46
2022/07/11 11:36:51;;;;;;;3.10;2.80;;;;;;;37.38;26.12;100874.06;5053465;28;20543;-44
2022/07/11 11:39:23;;;;;;;3.22;1.55;;;;;;;37.39;25.48;100875.78;5044169;28;20114;-43
2022/07/11 11:41:50;;;;;;;2.53;1.40;;;;;;;37.39;25.73;100873.09;5049128;28;20045;-44
2022/07/11 11:44:16;;;;;;;3.92;1.55;;;;;;;37.29;25.36;100869.66;5055713;28;20535;-48
2022/07/11 11:46:43;;;;;;;2.80;1.58;;;;;;;37.24;26.22;100872.00;5050757;28;20045;-44
2022/07/11 11:49:10;;;;;;;4.57;3.08;;;;;;;37.21;26.23;100877.72;5053526;28;20660;-43
2022/07/11 11:51:37;;;;;;;3.13;1.40;;;;;;;37.20;25.49;100876.00;5060858;28;20110;-44
2022/07/11 11:54:04;;;;;;;1.65;1.40;;;;;;;37.13;25.40;100870.38;5054351;28;20049;-43